createdAt,value
2018-03-31T00:02:08.622Z,7.47
2018-03-31T00:04:40.620Z,7.20
2018-03-31T00:07:12.669Z,7.29
2018-03-31T00:09:44.709Z,7.08
2018-03-31T00:12:16.728Z,7.23
2018-03-31T00:14:48.765Z,7.00
2018-03-31T00:17:20.785Z,7.24
2018-03-31T00:19:52.767Z,7.06
2018-03-31T00:22:25.560Z,7.26
2018-03-31T00:24:57.558Z,7.32
2018-03-31T00:27:29.589Z,7.34
2018-03-31T00:30:01.593Z,7.24
2018-03-31T00:32:33.627Z,7.27
2018-03-31T00:35:05.618Z,7.39
2018-03-31T00:37:37.641Z,7.54
2018-03-31T00:40:09.638Z,7.49
2018-03-31T00:42:41.716Z,7.23
2018-03-31T00:45:13.755Z,7.14
2018-03-31T00:47:45.772Z,6.58
2018-03-31T00:50:17.815Z,7.03
2018-03-31T00:52:49.872Z,7.05
2018-03-31T00:55:22.729Z,6.75
2018-03-31T00:57:54.748Z,6.71
2018-03-31T01:00:26.798Z,6.93
2018-03-31T01:02:58.836Z,6.61
2018-03-31T01:05:30.908Z,6.76
2018-03-31T01:08:02.923Z,6.58
2018-03-31T01:10:34.969Z,6.84
2018-03-31T01:13:06.978Z,6.82
2018-03-31T01:15:39.040Z,6.97
2018-03-31T01:18:11.083Z,6.72
2018-03-31T01:20:43.089Z,6.82
2018-03-31T01:23:15.092Z,6.64
2018-03-31T01:25:47.142Z,6.30
2018-03-31T01:28:19.152Z,6.58
2018-03-31T01:30:51.191Z,6.55
2018-03-31T01:33:23.217Z,6.66
2018-03-31T01:35:55.250Z,6.42
2018-03-31T01:38:27.260Z,6.51
2018-03-31T01:40:59.287Z,6.62
2018-03-31T01:43:31.306Z,6.78
2018-03-31T01:46:03.343Z,6.74
2018-03-31T01:48:35.344Z,6.72
2018-03-31T01:51:07.373Z,6.62
2018-03-31T01:53:39.374Z,6.72
2018-03-31T01:56:11.390Z,6.93
2018-03-31T01:58:43.394Z,6.89
2018-03-31T02:01:15.456Z,6.61
2018-03-31T02:03:47.464Z,6.79
2018-03-31T02:06:19.488Z,6.60
2018-03-31T02:08:51.517Z,6.53
2018-03-31T02:11:23.545Z,6.19
2018-03-31T02:13:55.716Z,6.88
2018-03-31T02:16:27.740Z,6.79
2018-03-31T02:18:59.748Z,7.06
2018-03-31T02:21:31.765Z,6.83
2018-03-31T02:24:03.758Z,6.57
2018-03-31T02:26:37.650Z,6.44
2018-03-31T02:29:11.114Z,6.51
2018-03-31T02:31:43.152Z,5.98
2018-03-31T02:34:15.182Z,6.52
2018-03-31T02:36:47.198Z,6.58
2018-03-31T02:39:19.208Z,6.67
2018-03-31T02:41:51.236Z,6.55
2018-03-31T02:44:23.263Z,6.43
2018-03-31T02:46:55.294Z,6.54
2018-03-31T02:49:27.305Z,6.58
2018-03-31T02:51:59.344Z,6.60
2018-03-31T02:54:31.367Z,6.48
2018-03-31T02:57:03.380Z,6.11
2018-03-31T02:59:35.405Z,6.18
2018-03-31T03:02:07.434Z,6.40
2018-03-31T03:04:39.580Z,6.59
2018-03-31T03:07:11.624Z,5.95
2018-03-31T03:09:43.625Z,6.53
2018-03-31T03:12:15.633Z,6.64
2018-03-31T03:14:47.681Z,6.42
2018-03-31T03:17:19.708Z,6.17
2018-03-31T03:19:51.749Z,5.96
2018-03-31T03:22:23.783Z,6.03
2018-03-31T03:24:55.856Z,6.08
2018-03-31T03:27:27.947Z,5.86
2018-03-31T03:29:59.945Z,6.15
2018-03-31T03:32:32.062Z,6.33
2018-03-31T03:35:04.116Z,6.03
2018-03-31T03:37:36.177Z,6.12
2018-03-31T03:40:08.248Z,5.44
2018-03-31T03:42:40.324Z,6.13
2018-03-31T03:45:12.330Z,6.13
2018-03-31T03:47:44.385Z,6.30
2018-03-31T03:50:16.424Z,6.47
2018-03-31T03:52:48.450Z,6.00
2018-03-31T03:55:20.444Z,5.97
2018-03-31T03:57:52.476Z,6.17
2018-03-31T04:00:24.470Z,6.26
2018-03-31T04:02:56.491Z,6.47
2018-03-31T04:05:28.486Z,6.35
2018-03-31T04:08:00.516Z,5.62
2018-03-31T04:10:32.504Z,6.15
2018-03-31T04:13:04.518Z,6.18
2018-03-31T04:15:36.522Z,6.41
2018-03-31T04:18:08.538Z,6.61
2018-03-31T04:20:40.534Z,6.30
2018-03-31T04:23:12.553Z,6.39
2018-03-31T04:25:44.545Z,6.53
2018-03-31T04:28:16.564Z,6.30
2018-03-31T04:30:48.559Z,6.31
2018-03-31T04:33:20.587Z,6.13
2018-03-31T04:35:52.592Z,6.24
2018-03-31T04:38:24.623Z,6.31
2018-03-31T04:40:56.631Z,5.94
2018-03-31T04:43:28.666Z,6.01
2018-03-31T04:46:00.664Z,6.07
2018-03-31T04:48:32.693Z,6.01
2018-03-31T04:51:04.702Z,6.07
2018-03-31T04:53:36.724Z,6.14
2018-03-31T04:56:08.727Z,6.17
2018-03-31T04:58:40.762Z,6.18
2018-03-31T05:01:12.775Z,6.16
2018-03-31T05:03:44.808Z,6.40
2018-03-31T05:06:16.814Z,6.05
2018-03-31T05:08:48.839Z,6.03
2018-03-31T05:11:20.874Z,6.13
2018-03-31T05:13:52.904Z,6.01
2018-03-31T05:16:24.898Z,6.29
2018-03-31T05:18:56.951Z,6.10
2018-03-31T05:21:28.951Z,6.18
2018-03-31T05:24:00.985Z,5.77
2018-03-31T05:26:32.991Z,6.17
2018-03-31T05:29:05.010Z,5.56
2018-03-31T05:31:37.056Z,6.32
2018-03-31T05:34:09.044Z,6.02
2018-03-31T05:36:41.057Z,6.17
2018-03-31T05:39:13.064Z,6.13
2018-03-31T05:41:45.089Z,6.46
2018-03-31T05:44:17.090Z,6.21
2018-03-31T05:46:49.104Z,5.99
2018-03-31T05:49:21.100Z,6.40
2018-03-31T05:51:53.126Z,6.19
2018-03-31T05:54:25.132Z,6.00
2018-03-31T05:56:57.193Z,6.01
2018-03-31T05:59:29.183Z,6.20
2018-03-31T06:02:01.205Z,6.31
2018-03-31T06:04:33.206Z,6.26
2018-03-31T06:07:05.252Z,6.16
2018-03-31T06:09:37.294Z,6.28
2018-03-31T06:12:09.344Z,6.14
2018-03-31T06:14:41.389Z,6.06
2018-03-31T06:17:13.412Z,5.90
2018-03-31T06:19:45.415Z,6.22
2018-03-31T06:22:17.462Z,6.27
2018-03-31T06:24:51.834Z,6.13
2018-03-31T06:27:23.913Z,6.33
2018-03-31T06:29:55.925Z,6.28
2018-03-31T06:32:27.985Z,6.30
2018-03-31T06:34:59.996Z,6.33
2018-03-31T06:37:32.070Z,6.34
2018-03-31T06:40:04.085Z,6.24
2018-03-31T06:42:36.133Z,6.27
2018-03-31T06:45:08.150Z,6.37
2018-03-31T06:47:40.188Z,6.05
2018-03-31T06:50:12.204Z,5.87
2018-03-31T06:52:44.302Z,5.75
2018-03-31T06:55:16.315Z,5.66
2018-03-31T06:57:48.353Z,5.80
2018-03-31T07:00:20.366Z,5.88
2018-03-31T07:02:52.388Z,5.84
2018-03-31T07:05:24.430Z,5.71
2018-03-31T07:07:56.454Z,5.74
2018-03-31T07:10:28.457Z,5.64
2018-03-31T07:13:00.490Z,5.77
2018-03-31T07:15:32.534Z,5.85
2018-03-31T07:18:04.562Z,5.77
2018-03-31T07:20:36.588Z,5.79
2018-03-31T07:23:08.633Z,5.80
2018-03-31T07:25:40.644Z,5.83
2018-03-31T07:28:12.720Z,6.06
2018-03-31T07:30:44.736Z,5.50
2018-03-31T07:33:16.801Z,5.68
2018-03-31T07:35:48.826Z,5.72
2018-03-31T07:38:20.872Z,5.97
2018-03-31T07:40:52.903Z,5.94
2018-03-31T07:43:24.961Z,5.91
2018-03-31T07:45:56.983Z,6.00
2018-03-31T07:48:29.034Z,5.79
2018-03-31T07:51:01.064Z,5.76
2018-03-31T07:53:33.154Z,5.88
2018-03-31T07:56:05.196Z,5.51
2018-03-31T07:58:37.224Z,5.55
2018-03-31T08:01:09.256Z,5.69
2018-03-31T08:03:41.289Z,5.63
2018-03-31T08:06:13.319Z,5.81
2018-03-31T08:08:45.350Z,5.89
2018-03-31T08:11:17.417Z,5.72
2018-03-31T08:13:49.458Z,5.89
2018-03-31T08:16:21.494Z,5.88
2018-03-31T08:18:53.575Z,5.92
2018-03-31T08:21:25.591Z,6.06
2018-03-31T08:23:57.646Z,6.09
2018-03-31T08:26:29.684Z,6.07
2018-03-31T08:29:01.741Z,5.67
2018-03-31T08:31:33.805Z,5.79
2018-03-31T08:34:05.856Z,6.00
2018-03-31T08:36:37.918Z,5.80
2018-03-31T08:39:09.960Z,5.72
2018-03-31T08:41:42.013Z,5.92
2018-03-31T08:44:14.082Z,5.53
2018-03-31T08:46:46.122Z,5.65
2018-03-31T08:49:18.351Z,5.54
2018-03-31T08:51:50.436Z,5.62
2018-03-31T08:54:22.532Z,5.80
2018-03-31T08:56:54.564Z,5.81
2018-03-31T08:59:26.640Z,5.61
2018-03-31T09:01:58.686Z,5.68
2018-03-31T09:04:30.751Z,5.67
2018-03-31T09:07:02.789Z,5.48
2018-03-31T09:09:34.963Z,5.62
2018-03-31T09:12:07.010Z,5.68
2018-03-31T09:14:39.082Z,5.84
2018-03-31T09:17:11.122Z,5.91
2018-03-31T09:19:43.198Z,5.86
2018-03-31T09:22:15.287Z,5.74
2018-03-31T09:24:47.361Z,5.76
2018-03-31T09:27:19.436Z,5.87
2018-03-31T09:29:51.588Z,5.88
2018-03-31T09:32:23.800Z,5.87
2018-03-31T09:34:55.887Z,5.85
2018-03-31T09:37:28.008Z,5.75
2018-03-31T09:40:00.252Z,5.74
2018-03-31T09:42:32.358Z,5.77
2018-03-31T09:45:04.555Z,5.91
2018-03-31T09:47:37.321Z,6.02
2018-03-31T09:50:42.907Z,6.12
2018-03-31T09:54:56.071Z,6.02
2018-03-31T10:00:36.369Z,6.04
2018-03-31T10:03:08.506Z,6.02
2018-03-31T10:05:40.808Z,5.89
2018-03-31T10:08:13.454Z,5.99
2018-03-31T10:10:45.514Z,5.91
2018-03-31T10:13:18.702Z,5.99
2018-03-31T10:15:51.147Z,6.15
2018-03-31T10:18:23.932Z,6.01
2018-03-31T10:20:56.436Z,5.88
2018-03-31T10:23:29.067Z,5.88
2018-03-31T10:26:01.139Z,5.85
2018-03-31T10:28:33.250Z,5.78
2018-03-31T10:31:05.273Z,5.82
2018-03-31T10:33:37.333Z,5.67
2018-03-31T10:36:09.369Z,5.80
2018-03-31T10:38:41.391Z,5.73
2018-03-31T10:41:13.335Z,5.61
2018-03-31T10:43:45.332Z,5.56
2018-03-31T10:46:17.270Z,5.53
2018-03-31T10:48:49.234Z,5.59
2018-03-31T10:51:21.179Z,5.60
2018-03-31T10:53:53.139Z,5.45
2018-03-31T10:56:25.079Z,5.50
2018-03-31T10:58:57.035Z,5.62
2018-03-31T11:01:28.977Z,5.73
2018-03-31T11:04:01.116Z,5.71
2018-03-31T11:06:33.396Z,5.68
2018-03-31T11:09:05.437Z,5.67
2018-03-31T11:11:37.548Z,5.54
2018-03-31T11:14:09.672Z,5.48
2018-03-31T11:16:41.668Z,5.47
2018-03-31T11:19:13.660Z,5.49
2018-03-31T11:21:45.611Z,5.51
2018-03-31T11:24:17.578Z,5.45
2018-03-31T11:26:49.520Z,5.45
2018-03-31T11:29:21.487Z,5.48
2018-03-31T11:31:53.461Z,5.46
2018-03-31T11:34:25.430Z,5.42
2018-03-31T11:36:57.373Z,5.37
2018-03-31T11:39:29.546Z,5.30
2018-03-31T11:42:01.583Z,5.22
2018-03-31T11:44:33.916Z,5.14
2018-03-31T11:47:05.933Z,5.19
2018-03-31T11:49:38.023Z,5.12
2018-03-31T11:52:10.097Z,5.06
2018-03-31T11:54:42.206Z,5.05
2018-03-31T11:57:14.158Z,5.10
2018-03-31T11:59:46.118Z,5.15
2018-03-31T12:02:18.064Z,5.19
2018-03-31T12:04:50.030Z,5.11
2018-03-31T12:07:21.975Z,5.14
2018-03-31T12:09:53.941Z,5.18
2018-03-31T12:12:25.879Z,5.18
2018-03-31T12:14:58.015Z,5.22
2018-03-31T12:17:29.977Z,5.26
2018-03-31T12:20:02.050Z,5.34
2018-03-31T12:22:34.111Z,5.42
2018-03-31T12:25:06.165Z,5.50
2018-03-31T12:27:38.352Z,5.48
2018-03-31T12:30:10.452Z,5.54
2018-03-31T12:32:42.461Z,5.67
2018-03-31T12:35:15.163Z,5.79
2018-03-31T12:37:47.099Z,5.87
2018-03-31T12:40:19.079Z,6.05
2018-03-31T12:42:51.028Z,6.10
2018-03-31T12:45:22.987Z,6.14
2018-03-31T12:47:54.924Z,6.13
2018-03-31T12:50:26.883Z,6.15
2018-03-31T12:52:58.828Z,6.14
2018-03-31T12:55:30.838Z,6.22
2018-03-31T12:58:02.899Z,6.20
2018-03-31T13:00:34.920Z,6.07
2018-03-31T13:03:06.962Z,6.19
2018-03-31T13:05:38.999Z,6.11
2018-03-31T13:08:10.994Z,6.08
2018-03-31T13:10:42.970Z,6.01
2018-03-31T13:13:14.926Z,6.01
2018-03-31T13:15:46.879Z,5.93
2018-03-31T13:18:18.814Z,5.95
2018-03-31T13:20:50.778Z,5.94
2018-03-31T13:23:22.727Z,5.82
2018-03-31T13:25:54.686Z,5.77
2018-03-31T13:28:26.623Z,5.82
2018-03-31T13:30:58.580Z,5.82
2018-03-31T13:33:31.629Z,5.78
2018-03-31T13:36:03.818Z,5.86
2018-03-31T13:38:35.897Z,5.87
2018-03-31T13:41:08.049Z,5.89
2018-03-31T13:43:40.076Z,5.95
2018-03-31T13:46:12.052Z,5.98
2018-03-31T13:48:44.042Z,5.97
2018-03-31T13:51:15.980Z,6.01
2018-03-31T13:53:47.935Z,6.05
2018-03-31T13:56:19.871Z,6.06
2018-03-31T13:58:53.298Z,6.25
2018-03-31T14:01:25.240Z,6.33
2018-03-31T14:06:36.886Z,6.48
2018-03-31T14:09:08.883Z,6.39
2018-03-31T14:11:40.869Z,6.50
2018-03-31T14:14:15.362Z,6.43
2018-03-31T14:16:47.410Z,6.50
2018-03-31T14:19:19.394Z,6.43
2018-03-31T14:21:52.102Z,6.39
2018-03-31T14:24:24.157Z,6.26
2018-03-31T14:26:56.130Z,6.18
2018-03-31T14:29:28.115Z,6.30
2018-03-31T14:32:00.051Z,6.33
2018-03-31T14:34:32.014Z,6.24
2018-03-31T14:37:03.958Z,5.98
2018-03-31T14:39:35.918Z,6.18
2018-03-31T14:42:08.585Z,6.22
2018-03-31T14:44:46.196Z,6.05
2018-03-31T14:47:18.414Z,6.16
2018-03-31T14:49:56.645Z,6.16
2018-03-31T14:52:28.615Z,6.27
2018-03-31T14:55:01.515Z,6.38
2018-03-31T14:57:33.463Z,6.34
2018-03-31T15:00:05.425Z,6.26
2018-03-31T15:02:37.368Z,6.18
2018-03-31T15:05:09.565Z,6.15
2018-03-31T15:07:41.628Z,6.14
2018-03-31T15:10:13.731Z,5.98
2018-03-31T15:12:45.872Z,6.02
2018-03-31T15:15:21.633Z,5.95
2018-03-31T15:17:54.128Z,6.16
2018-03-31T15:20:26.091Z,6.21
2018-03-31T15:22:58.033Z,6.12
2018-03-31T15:25:30.021Z,6.10
2018-03-31T15:28:02.001Z,5.92
2018-03-31T15:30:33.967Z,5.89
2018-03-31T15:33:05.915Z,6.01
2018-03-31T15:35:37.989Z,6.02
2018-03-31T15:38:10.618Z,5.92
2018-03-31T15:40:42.929Z,5.85
2018-03-31T15:43:14.947Z,5.87
2018-03-31T15:45:47.443Z,5.75
2018-03-31T15:48:19.449Z,5.90
2018-03-31T15:50:51.422Z,5.78
2018-03-31T15:53:23.374Z,5.83
2018-03-31T15:55:55.334Z,5.90
2018-03-31T15:58:27.279Z,5.93
2018-03-31T16:00:59.258Z,5.94
2018-03-31T16:03:31.475Z,5.86
2018-03-31T16:06:04.079Z,5.82
2018-03-31T16:08:36.024Z,5.72
2018-03-31T16:11:08.515Z,5.60
2018-03-31T16:13:40.692Z,5.72
2018-03-31T16:16:12.874Z,5.80
2018-03-31T16:18:44.999Z,5.73
2018-03-31T16:21:16.989Z,5.67
2018-03-31T16:23:48.950Z,5.50
2018-03-31T16:26:20.926Z,5.59
2018-03-31T16:28:54.213Z,5.72
2018-03-31T16:31:26.265Z,5.73
2018-03-31T16:33:58.239Z,5.74
2018-03-31T16:36:30.231Z,5.81
2018-03-31T16:39:02.173Z,5.64
2018-03-31T16:41:34.153Z,5.60
2018-03-31T16:44:06.099Z,5.51
2018-03-31T16:46:38.431Z,5.47
2018-03-31T16:49:10.504Z,5.51
2018-03-31T16:51:47.597Z,5.56
2018-03-31T16:54:19.754Z,5.58
2018-03-31T16:56:52.156Z,5.57
2018-03-31T16:59:24.198Z,5.57
2018-03-31T17:01:56.242Z,5.61
2018-03-31T17:04:28.211Z,5.53
2018-03-31T17:07:00.178Z,5.53
2018-03-31T17:09:32.114Z,5.57
2018-03-31T17:12:04.086Z,5.50
2018-03-31T17:14:36.050Z,5.45
2018-03-31T17:17:09.078Z,5.41
2018-03-31T17:19:42.518Z,5.38
2018-03-31T17:22:14.909Z,5.47
2018-03-31T17:24:48.837Z,5.51
2018-03-31T17:27:21.311Z,5.55
2018-03-31T17:29:53.383Z,5.63
2018-03-31T17:32:25.339Z,5.55
2018-03-31T17:34:57.277Z,5.55
2018-03-31T17:37:29.240Z,5.49
2018-03-31T17:40:01.224Z,5.47
2018-03-31T17:42:33.186Z,5.48
2018-03-31T17:45:05.131Z,5.36
2018-03-31T17:47:37.101Z,5.37
2018-03-31T17:50:11.472Z,5.35
2018-03-31T17:52:44.512Z,5.32
2018-03-31T17:55:17.627Z,5.31
2018-03-31T17:57:50.319Z,5.28
2018-03-31T18:00:23.174Z,5.27
2018-03-31T18:02:55.408Z,5.20
2018-03-31T18:05:27.417Z,5.21
2018-03-31T18:07:59.354Z,5.27
2018-03-31T18:10:31.315Z,5.31
2018-03-31T18:13:03.250Z,5.24
2018-03-31T18:15:35.236Z,5.24
2018-03-31T18:18:07.193Z,5.23
2018-03-31T18:20:40.854Z,5.19
2018-03-31T18:23:15.256Z,5.25
2018-03-31T18:25:47.962Z,5.21
2018-03-31T18:28:22.379Z,5.23
2018-03-31T18:30:59.044Z,5.26
2018-03-31T18:33:31.066Z,5.16
2018-03-31T18:36:03.032Z,5.15
2018-03-31T18:38:34.975Z,5.16
2018-03-31T18:41:06.946Z,5.17
2018-03-31T18:43:40.353Z,5.14
2018-03-31T18:46:24.312Z,5.15
2018-03-31T18:48:57.458Z,5.17
2018-03-31T18:51:29.476Z,5.15
2018-03-31T18:54:01.394Z,5.10
2018-03-31T18:56:33.380Z,5.28
2018-03-31T18:59:05.374Z,5.26
2018-03-31T19:01:37.346Z,5.25
2018-03-31T19:04:09.908Z,5.24
2018-03-31T19:06:47.895Z,5.32
2018-03-31T19:09:20.811Z,5.32
2018-03-31T19:11:56.651Z,5.23
2018-03-31T19:14:28.674Z,5.24
2018-03-31T19:17:06.393Z,5.32
2018-03-31T19:19:38.536Z,5.16
2018-03-31T19:22:12.136Z,5.05
2018-03-31T19:24:53.050Z,5.04
2018-03-31T19:27:27.589Z,5.11
2018-03-31T19:29:59.555Z,5.21
2018-03-31T19:32:31.536Z,5.16
2018-03-31T19:35:03.480Z,5.11
2018-03-31T19:37:35.443Z,5.13
2018-03-31T19:40:07.376Z,4.98
2018-03-31T19:42:48.683Z,5.08
2018-03-31T19:45:21.581Z,5.10
2018-03-31T19:47:55.827Z,5.05
2018-03-31T19:50:29.146Z,4.97
2018-03-31T19:53:01.129Z,5.08
2018-03-31T19:55:33.070Z,5.05
2018-03-31T19:58:05.043Z,5.09
2018-03-31T20:00:36.991Z,5.00
2018-03-31T20:03:13.252Z,4.96
2018-03-31T20:05:49.041Z,4.93
2018-03-31T20:08:21.419Z,4.88
2018-03-31T20:10:53.399Z,4.94
2018-03-31T20:13:25.363Z,4.95
2018-03-31T20:15:57.310Z,4.95
2018-03-31T20:18:29.340Z,4.96
2018-03-31T20:21:01.336Z,4.95
2018-03-31T20:23:33.307Z,4.84
2018-03-31T20:26:05.276Z,4.86
2018-03-31T20:28:37.221Z,4.89
2018-03-31T20:31:10.719Z,4.93
2018-03-31T20:33:43.066Z,4.95
2018-03-31T20:36:16.335Z,4.93
2018-03-31T20:38:48.558Z,4.99
2018-03-31T20:41:20.706Z,4.94
2018-03-31T20:43:54.060Z,4.95
2018-03-31T20:46:28.044Z,4.93
2018-03-31T20:48:59.988Z,4.97
2018-03-31T20:51:31.947Z,4.97
2018-03-31T20:54:03.895Z,4.94
2018-03-31T20:56:35.890Z,4.90
2018-03-31T20:59:08.052Z,5.07
2018-03-31T21:01:45.247Z,5.01
2018-03-31T21:04:18.181Z,4.99
2018-03-31T21:06:53.094Z,5.06
2018-03-31T21:09:28.401Z,5.11
2018-03-31T21:12:00.383Z,5.10
2018-03-31T21:14:32.324Z,5.08
2018-03-31T21:17:04.284Z,5.16
2018-03-31T21:19:36.230Z,5.13
2018-03-31T21:22:08.298Z,5.08
2018-03-31T21:24:44.468Z,5.12
2018-03-31T21:27:16.869Z,5.13
2018-03-31T21:29:49.650Z,5.05
2018-03-31T21:32:22.790Z,5.05
2018-03-31T21:34:55.646Z,5.04
2018-03-31T21:37:27.646Z,5.08
2018-03-31T21:39:59.588Z,5.17
2018-03-31T21:42:31.543Z,5.20
2018-03-31T21:45:03.479Z,5.17
2018-03-31T21:47:35.441Z,5.16
2018-03-31T21:50:07.374Z,5.12
2018-03-31T21:52:44.161Z,4.98
2018-03-31T21:55:18.224Z,5.03
2018-03-31T21:57:54.347Z,5.05
2018-03-31T22:00:29.386Z,5.00
2018-03-31T22:03:01.348Z,5.11
2018-03-31T22:05:33.299Z,5.10
2018-03-31T22:08:05.264Z,5.08
2018-03-31T22:10:37.212Z,5.10
2018-03-31T22:13:15.716Z,5.13
2018-03-31T22:15:51.436Z,5.08
2018-03-31T22:18:24.140Z,5.01
2018-03-31T22:20:56.286Z,5.10
2018-03-31T22:23:28.249Z,5.15
2018-03-31T22:26:00.198Z,5.11
2018-03-31T22:28:32.158Z,5.13
2018-03-31T22:31:04.098Z,5.14
2018-03-31T22:33:36.081Z,5.08
2018-03-31T22:36:08.288Z,5.11
2018-03-31T22:38:45.634Z,5.07
2018-03-31T22:41:19.724Z,5.18
2018-03-31T22:43:53.043Z,5.11
2018-03-31T22:46:26.253Z,5.05
2018-03-31T22:48:58.447Z,5.04
2018-03-31T22:51:30.397Z,4.96
2018-03-31T22:54:02.581Z,5.10
2018-03-31T22:56:34.611Z,5.18
2018-03-31T22:59:06.662Z,5.18
2018-03-31T23:01:40.145Z,5.04
2018-03-31T23:04:13.595Z,5.03
2018-03-31T23:06:46.869Z,5.08
2018-03-31T23:09:20.109Z,5.12
2018-03-31T23:11:55.638Z,5.15
2018-03-31T23:14:28.640Z,5.13
2018-03-31T23:17:00.609Z,5.15
2018-03-31T23:19:32.562Z,5.10
2018-03-31T23:22:04.522Z,5.09
2018-03-31T23:24:36.460Z,5.05
2018-03-31T23:27:09.512Z,5.19
2018-03-31T23:29:43.161Z,5.18
2018-03-31T23:32:16.801Z,5.13
2018-03-31T23:34:49.662Z,5.21
2018-03-31T23:37:23.361Z,5.14
2018-03-31T23:39:56.043Z,5.15
2018-03-31T23:42:28.006Z,5.14
2018-03-31T23:44:59.947Z,5.12
2018-03-31T23:47:31.912Z,5.21
2018-03-31T23:50:03.860Z,5.07
2018-03-31T23:52:35.823Z,5.15
2018-03-31T23:55:07.840Z,5.14
2018-03-31T23:57:41.965Z,5.21
